Time;durP1;ratioP1;P1;durP2;ratioP2;P2;SDS_P1;SDS_P2;PMS_P1;PMS_P2;Temp;Humidity;BMP_temperature;BMP_pressure;BME280_temperature;BME280_humidity;BME280_pressure;Samples;Min_cycle;Max_cycle;Signal;HPM_P1;HPM_P2
2021/10/20 00:01:45;;;;;;;23.30;18.27;;;;;;;;;;143727;582;46020;-58
2021/10/20 00:04:12;;;;;;;19.50;16.50;;;;;;;;;;143729;639;47020;-58
2021/10/20 00:06:39;;;;;;;18.17;16.20;;;;;;;;;;143730;600;46023;-57
2021/10/20 00:09:06;;;;;;;26.60;20.52;;;;;;;;;;143727;612;46020;-58
2021/10/20 00:11:34;;;;;;;20.35;17.60;;;;;;;;;;143728;603;46020;-55
2021/10/20 00:14:01;;;;;;;18.67;16.60;;;;;;;;;;143728;564;48010;-54
2021/10/20 00:16:29;;;;;;;23.02;19.73;;;;;;;;;;143729;592;46022;-54
2021/10/20 00:18:56;;;;;;;27.10;20.92;;;;;;;;;;143727;592;46021;-55
2021/10/20 00:21:26;;;;;;;21.45;18.23;;;;;;;;;;143728;675;46021;-56
2021/10/20 00:23:54;;;;;;;23.40;18.73;;;;;;;;;;143731;614;46020;-53
2021/10/20 00:26:21;;;;;;;19.87;16.92;;;;;;;;;;143729;611;46051;-55
2021/10/20 00:28:48;;;;;;;18.95;16.80;;;;;;;;;;143725;652;46914;-54
2021/10/20 00:31:15;;;;;;;26.98;21.40;;;;;;;;;;143728;650;46020;-54
2021/10/20 00:33:42;;;;;;;26.58;20.23;;;;;;;;;;143730;570;46020;-57
2021/10/20 00:36:10;;;;;;;20.02;17.83;;;;;;;;;;143729;569;46023;-58
2021/10/20 00:38:37;;;;;;;20.15;17.60;;;;;;;;;;143725;591;47010;-57
2021/10/20 00:41:04;;;;;;;20.65;17.83;;;;;;;;;;143727;565;46020;-58
2021/10/20 00:43:32;;;;;;;20.27;17.08;;;;;;;;;;143730;618;46021;-57
2021/10/20 00:45:59;;;;;;;19.55;15.25;;;;;;;;;;143728;586;46022;-57
2021/10/20 00:48:26;;;;;;;21.92;18.92;;;;;;;;;;143727;656;46914;-57
2021/10/20 00:50:53;;;;;;;19.87;17.40;;;;;;;;;;143727;642;46021;-58
2021/10/20 00:53:20;;;;;;;21.75;17.98;;;;;;;;;;143731;590;46020;-57
2021/10/20 00:55:48;;;;;;;21.67;17.20;;;;;;;;;;143729;583;46022;-58
2021/10/20 00:58:16;;;;;;;22.40;18.55;;;;;;;;;;143726;600;46914;-57
2021/10/20 01:00:43;;;;;;;20.50;18.33;;;;;;;;;;143726;615;46020;-58
2021/10/20 01:03:10;;;;;;;21.90;17.10;;;;;;;;;;143730;643;46020;-57
2021/10/20 01:05:38;;;;;;;20.23;18.08;;;;;;;;;;143724;620;48021;-57
2021/10/20 01:08:05;;;;;;;22.83;18.45;;;;;;;;;;143726;593;46914;-57
2021/10/20 01:10:32;;;;;;;25.48;18.02;;;;;;;;;;143726;588;46020;-57
2021/10/20 01:12:59;;;;;;;20.85;18.62;;;;;;;;;;143732;583;46021;-58
2021/10/20 01:15:28;;;;;;;22.60;19.48;;;;;;;;;;143730;630;46022;-57
2021/10/20 01:17:55;;;;;;;21.00;18.05;;;;;;;;;;143728;565;46023;-58
2021/10/20 01:20:25;;;;;;;23.75;19.58;;;;;;;;;;143726;599;46021;-57
2021/10/20 01:22:53;;;;;;;22.52;19.27;;;;;;;;;;143731;588;46020;-58
2021/10/20 01:25:21;;;;;;;23.45;19.50;;;;;;;;;;143740;587;46022;-58
2021/10/20 01:27:48;;;;;;;19.42;17.02;;;;;;;;;;143741;569;46021;-58
2021/10/20 01:30:15;;;;;;;21.23;17.75;;;;;;;;;;143740;564;46020;-58
2021/10/20 01:32:42;;;;;;;21.65;16.90;;;;;;;;;;143744;621;46020;-58
2021/10/20 01:35:09;;;;;;;25.27;21.52;;;;;;;;;;143745;572;46023;-58
2021/10/20 01:37:37;;;;;;;30.15;24.77;;;;;;;;;;143740;593;46020;-58
2021/10/20 01:40:06;;;;;;;31.77;26.15;;;;;;;;;;143740;599;46020;-57
2021/10/20 01:42:36;;;;;;;34.80;25.35;;;;;;;;;;143744;587;46021;-57
2021/10/20 01:45:14;;;;;;;26.90;22.65;;;;;;;;;;143743;585;46022;-57
2021/10/20 01:47:41;;;;;;;31.17;23.23;;;;;;;;;;143743;578;46021;-57
2021/10/20 01:50:10;;;;;;;27.00;22.50;;;;;;;;;;143740;631;46021;-57
2021/10/20 01:52:38;;;;;;;31.98;22.60;;;;;;;;;;143744;564;46020;-57
2021/10/20 01:55:07;;;;;;;31.83;22.60;;;;;;;;;;143742;569;46022;-58
2021/10/20 01:57:35;;;;;;;37.20;26.77;;;;;;;;;;143741;570;46020;-58
2021/10/20 02:00:03;;;;;;;45.08;30.15;;;;;;;;;;143740;564;46020;-58
2021/10/20 02:02:30;;;;;;;51.03;30.10;;;;;;;;;;143745;584;46020;-58
2021/10/20 02:04:57;;;;;;;68.87;38.13;;;;;;;;;;143743;575;46023;-57
2021/10/20 02:07:24;;;;;;;56.88;34.72;;;;;;;;;;143740;564;46020;-58
2021/10/20 02:09:51;;;;;;;58.92;34.50;;;;;;;;;;143739;634;46020;-58
2021/10/20 02:12:18;;;;;;;51.10;28.25;;;;;;;;;;143743;680;46021;-57
2021/10/20 02:14:45;;;;;;;53.25;33.70;;;;;;;;;;143742;571;46043;-57
2021/10/20 02:17:12;;;;;;;47.03;31.15;;;;;;;;;;143742;590;46020;-57
2021/10/20 02:19:39;;;;;;;41.10;27.70;;;;;;;;;;143741;606;46021;-53
2021/10/20 02:22:06;;;;;;;67.15;41.50;;;;;;;;;;143745;581;46020;-53
2021/10/20 02:24:33;;;;;;;51.90;35.30;;;;;;;;;;143736;567;46048;-53
2021/10/20 02:27:00;;;;;;;50.40;35.10;;;;;;;;;;143730;650;46010;-53
2021/10/20 02:29:28;;;;;;;55.78;40.28;;;;;;;;;;143723;589;47020;-53
2021/10/20 02:31:55;;;;;;;55.78;36.08;;;;;;;;;;143731;627;46020;-53
2021/10/20 02:34:22;;;;;;;49.80;38.05;;;;;;;;;;143729;569;46023;-54
2021/10/20 02:36:50;;;;;;;57.80;40.65;;;;;;;;;;143727;569;46020;-54
2021/10/20 02:39:17;;;;;;;44.10;31.48;;;;;;;;;;143726;628;46020;-53
2021/10/20 02:41:44;;;;;;;67.25;44.53;;;;;;;;;;143730;589;46021;-53
2021/10/20 02:44:11;;;;;;;53.67;36.65;;;;;;;;;;143729;572;46022;-53
2021/10/20 02:46:38;;;;;;;60.40;40.47;;;;;;;;;;143729;627;46020;-53
2021/10/20 02:49:05;;;;;;;75.60;48.30;;;;;;;;;;143727;579;46021;-53
2021/10/20 02:51:32;;;;;;;45.20;32.55;;;;;;;;;;143731;607;46020;-54
2021/10/20 02:54:00;;;;;;;48.33;35.28;;;;;;;;;;143729;573;46022;-54
2021/10/20 02:56:28;;;;;;;45.05;30.60;;;;;;;;;;143727;589;46029;-55
2021/10/20 02:58:55;;;;;;;38.20;28.48;;;;;;;;;;143728;579;46020;-54
2021/10/20 03:01:22;;;;;;;41.08;31.12;;;;;;;;;;143731;573;46020;-58
2021/10/20 03:03:49;;;;;;;39.38;26.58;;;;;;;;;;143728;604;46023;-58
2021/10/20 03:06:17;;;;;;;44.33;29.27;;;;;;;;;;143726;575;46914;-57
2021/10/20 03:08:44;;;;;;;47.45;32.83;;;;;;;;;;143727;601;46020;-58
2021/10/20 03:11:11;;;;;;;49.88;37.17;;;;;;;;;;143730;580;46021;-58
2021/10/20 03:13:38;;;;;;;39.28;30.73;;;;;;;;;;143726;585;46023;-57
2021/10/20 03:16:05;;;;;;;34.25;27.80;;;;;;;;;;143729;628;46020;-58
2021/10/20 03:18:33;;;;;;;43.22;31.37;;;;;;;;;;143726;565;46021;-58
2021/10/20 03:21:00;;;;;;;43.05;32.13;;;;;;;;;;143729;575;46020;-57
2021/10/20 03:23:27;;;;;;;58.10;34.40;;;;;;;;;;143729;577;46022;-58
2021/10/20 03:25:54;;;;;;;40.12;29.92;;;;;;;;;;143726;693;46029;-58
2021/10/20 03:28:21;;;;;;;42.25;31.83;;;;;;;;;;143727;604;46020;-57
2021/10/20 03:30:48;;;;;;;40.22;30.73;;;;;;;;;;143730;573;46020;-58
2021/10/20 03:33:15;;;;;;;45.55;29.92;;;;;;;;;;143728;597;46022;-58
2021/10/20 03:35:42;;;;;;;54.22;34.40;;;;;;;;;;143726;625;46020;-58
2021/10/20 03:38:11;;;;;;;41.30;32.55;;;;;;;;;;143729;578;46020;-57
2021/10/20 03:40:37;;;;;;;52.15;37.50;;;;;;;;;;143732;652;46020;-57
2021/10/20 03:43:05;;;;;;;44.55;34.40;;;;;;;;;;143729;590;46022;-58
2021/10/20 03:45:32;;;;;;;52.50;35.92;;;;;;;;;;143727;683;46020;-58
2021/10/20 03:47:59;;;;;;;45.38;33.38;;;;;;;;;;143728;564;46020;-57
2021/10/20 03:50:26;;;;;;;46.58;33.67;;;;;;;;;;143727;744;46021;-58
2021/10/20 03:52:53;;;;;;;49.17;36.00;;;;;;;;;;143726;585;47020;-57
2021/10/20 03:55:20;;;;;;;58.33;38.72;;;;;;;;;;143725;570;46021;-57
2021/10/20 03:57:47;;;;;;;74.57;54.13;;;;;;;;;;143725;582;46021;-58
2021/10/20 04:00:18;;;;;;;66.15;50.97;;;;;;;;;;143730;659;46020;-58
2021/10/20 04:02:46;;;;;;;66.25;51.40;;;;;;;;;;143727;619;46022;-59
2021/10/20 04:05:15;;;;;;;66.40;47.95;;;;;;;;;;143725;712;46020;-58
2021/10/20 04:07:43;;;;;;;59.80;42.83;;;;;;;;;;143722;642;46020;-58
2021/10/20 04:10:15;;;;;;;61.72;39.17;;;;;;;;;;143729;725;46020;-57
2021/10/20 04:12:43;;;;;;;56.17;38.42;;;;;;;;;;143727;621;46023;-58
2021/10/20 04:15:11;;;;;;;40.25;31.50;;;;;;;;;;143723;571;46020;-58
2021/10/20 04:17:39;;;;;;;41.15;31.23;;;;;;;;;;143727;616;46020;-57
2021/10/20 04:20:10;;;;;;;39.17;29.05;;;;;;;;;;143728;725;46020;-58
2021/10/20 04:22:38;;;;;;;38.72;26.45;;;;;;;;;;143727;590;46022;-56
2021/10/20 04:25:06;;;;;;;31.23;25.05;;;;;;;;;;143727;598;46021;-58
2021/10/20 04:27:33;;;;;;;40.12;27.10;;;;;;;;;;143725;602;46020;-58
2021/10/20 04:30:01;;;;;;;38.20;26.67;;;;;;;;;;143727;600;46020;-57
2021/10/20 04:32:28;;;;;;;34.35;24.98;;;;;;;;;;143727;583;46022;-57
2021/10/20 04:34:55;;;;;;;38.67;28.55;;;;;;;;;;143727;597;46020;-58
2021/10/20 04:37:25;;;;;;;35.53;26.02;;;;;;;;;;143723;594;46020;-57
2021/10/20 04:39:56;;;;;;;41.13;28.77;;;;;;;;;;143728;599;46021;-57
2021/10/20 04:42:24;;;;;;;32.63;24.95;;;;;;;;;;143726;593;47020;-58
2021/10/20 04:44:51;;;;;;;41.30;31.02;;;;;;;;;;143724;584;46914;-58
2021/10/20 04:47:18;;;;;;;45.20;28.83;;;;;;;;;;143726;609;46020;-58
2021/10/20 04:49:46;;;;;;;37.33;27.50;;;;;;;;;;143728;572;46021;-58
2021/10/20 04:52:13;;;;;;;37.10;26.40;;;;;;;;;;143727;752;46022;-59
2021/10/20 04:54:41;;;;;;;42.83;30.42;;;;;;;;;;143725;577;46021;-57
2021/10/20 04:57:08;;;;;;;47.40;31.05;;;;;;;;;;143724;566;46021;-58
2021/10/20 04:59:35;;;;;;;45.45;31.87;;;;;;;;;;143730;641;46020;-58
2021/10/20 05:02:02;;;;;;;51.22;35.33;;;;;;;;;;143725;632;46022;-58
2021/10/20 05:04:30;;;;;;;46.45;31.08;;;;;;;;;;143725;570;46914;-58
2021/10/20 05:06:57;;;;;;;50.70;31.10;;;;;;;;;;143725;577;46020;-58
2021/10/20 05:09:25;;;;;;;45.70;30.27;;;;;;;;;;143727;603;46020;-58
2021/10/20 05:11:52;;;;;;;39.25;27.95;;;;;;;;;;143727;589;46023;-57
2021/10/20 05:14:19;;;;;;;34.58;26.58;;;;;;;;;;143725;593;46020;-57
2021/10/20 05:16:46;;;;;;;35.42;26.20;;;;;;;;;;143727;569;46020;-57
2021/10/20 05:19:13;;;;;;;39.55;27.60;;;;;;;;;;143730;630;46021;-57
2021/10/20 05:21:40;;;;;;;39.72;29.75;;;;;;;;;;143727;589;46022;-57
2021/10/20 05:24:07;;;;;;;39.72;28.98;;;;;;;;;;143725;573;46021;-57
2021/10/20 05:26:34;;;;;;;40.17;30.33;;;;;;;;;;143724;666;46907;-57
2021/10/20 05:29:02;;;;;;;35.15;26.08;;;;;;;;;;143729;586;46020;-58
2021/10/20 05:31:28;;;;;;;36.38;26.17;;;;;;;;;;143728;590;46022;-58
2021/10/20 05:33:55;;;;;;;36.15;26.10;;;;;;;;;;143723;695;47010;-57
2021/10/20 05:36:23;;;;;;;41.90;25.67;;;;;;;;;;143725;627;46020;-57
2021/10/20 05:38:50;;;;;;;34.88;25.95;;;;;;;;;;143728;715;46025;-57
2021/10/20 05:41:17;;;;;;;31.98;25.20;;;;;;;;;;143727;572;46023;-58
2021/10/20 05:43:44;;;;;;;50.25;28.45;;;;;;;;;;143724;593;46020;-58
2021/10/20 05:46:11;;;;;;;60.42;34.78;;;;;;;;;;143723;592;46020;-58
2021/10/20 05:48:38;;;;;;;80.40;42.38;;;;;;;;;;143729;609;46021;-59
2021/10/20 05:51:05;;;;;;;81.82;44.15;;;;;;;;;;143726;583;47024;-59
2021/10/20 05:53:32;;;;;;;61.25;37.38;;;;;;;;;;143724;574;46021;-58
2021/10/20 05:55:59;;;;;;;68.70;39.20;;;;;;;;;;143725;565;46021;-58
2021/10/20 05:58:26;;;;;;;77.70;43.33;;;;;;;;;;143728;638;46020;-58
2021/10/20 06:00:53;;;;;;;74.47;48.85;;;;;;;;;;143726;709;47022;-58
2021/10/20 06:03:20;;;;;;;72.50;48.10;;;;;;;;;;143726;647;46020;-58
2021/10/20 06:05:47;;;;;;;69.68;46.05;;;;;;;;;;143726;612;46020;-58
2021/10/20 06:08:14;;;;;;;74.10;50.03;;;;;;;;;;143726;629;46020;-59
2021/10/20 06:10:41;;;;;;;53.60;35.13;;;;;;;;;;143727;565;46023;-60
2021/10/20 06:13:08;;;;;;;72.50;45.17;;;;;;;;;;143724;711;46914;-59
2021/10/20 06:15:35;;;;;;;68.07;41.60;;;;;;;;;;143723;624;46020;-59
2021/10/20 06:18:04;;;;;;;74.93;43.60;;;;;;;;;;143726;570;46021;-59
2021/10/20 06:20:31;;;;;;;70.22;41.42;;;;;;;;;;143726;609;46022;-59
2021/10/20 06:22:57;;;;;;;77.40;46.45;;;;;;;;;;143725;659;46020;-59
2021/10/20 06:25:24;;;;;;;74.05;47.65;;;;;;;;;;143727;673;46021;-59
2021/10/20 06:27:52;;;;;;;77.65;51.28;;;;;;;;;;143728;606;46020;-60
2021/10/20 06:30:19;;;;;;;63.40;45.12;;;;;;;;;;143727;584;46022;-60
2021/10/20 06:32:45;;;;;;;68.10;44.47;;;;;;;;;;143724;591;46915;-60
2021/10/20 06:35:12;;;;;;;61.85;40.42;;;;;;;;;;143728;574;46020;-60
2021/10/20 06:37:45;;;;;;;58.47;39.40;;;;;;;;;;143730;571;46020;-60
2021/10/20 06:40:12;;;;;;;52.88;36.20;;;;;;;;;;143726;581;46034;-59
2021/10/20 06:42:39;;;;;;;50.12;35.47;;;;;;;;;;143725;570;46020;-58
2021/10/20 06:45:08;;;;;;;51.92;33.50;;;;;;;;;;143727;607;46020;-58
2021/10/20 06:47:35;;;;;;;46.40;30.12;;;;;;;;;;143729;628;46021;-58
2021/10/20 06:50:02;;;;;;;55.35;30.65;;;;;;;;;;143727;618;46021;-58
2021/10/20 06:52:29;;;;;;;65.68;34.80;;;;;;;;;;143726;621;46020;-58
2021/10/20 06:54:56;;;;;;;57.78;32.97;;;;;;;;;;143719;578;49012;-59
2021/10/20 06:57:23;;;;;;;56.10;29.65;;;;;;;;;;143727;575;46020;-59
2021/10/20 06:59:50;;;;;;;48.08;29.73;;;;;;;;;;143727;578;46022;-59
2021/10/20 07:02:17;;;;;;;44.08;27.85;;;;;;;;;;143721;635;46021;-58
2021/10/20 07:04:44;;;;;;;41.95;26.37;;;;;;;;;;143722;619;49012;-58
2021/10/20 07:07:13;;;;;;;42.78;26.75;;;;;;;;;;143727;595;46020;-57
2021/10/20 07:09:40;;;;;;;44.92;27.23;;;;;;;;;;143725;671;48020;-58
2021/10/20 07:12:07;;;;;;;45.12;25.45;;;;;;;;;;143726;572;46028;-57
2021/10/20 07:14:34;;;;;;;36.45;24.80;;;;;;;;;;143720;675;47026;-57
2021/10/20 07:17:04;;;;;;;38.65;24.30;;;;;;;;;;143729;826;46021;-57
2021/10/20 07:19:31;;;;;;;38.30;23.38;;;;;;;;;;143725;802;48020;-58
2021/10/20 07:21:59;;;;;;;34.97;21.83;;;;;;;;;;143724;580;46020;-58
2021/10/20 07:24:26;;;;;;;33.47;22.75;;;;;;;;;;143728;582;46021;-57
2021/10/20 07:26:53;;;;;;;29.33;22.23;;;;;;;;;;143727;639;48010;-57
2021/10/20 07:29:20;;;;;;;31.85;20.00;;;;;;;;;;143726;616;46027;-56
2021/10/20 07:31:47;;;;;;;30.02;20.25;;;;;;;;;;143726;569;46021;-57
2021/10/20 07:34:13;;;;;;;30.73;22.83;;;;;;;;;;143724;620;46020;-57
2021/10/20 07:36:42;;;;;;;29.45;19.17;;;;;;;;;;143729;588;46020;-56
2021/10/20 07:39:09;;;;;;;25.08;19.05;;;;;;;;;;143727;585;46022;-57
2021/10/20 07:41:36;;;;;;;19.48;15.35;;;;;;;;;;143726;584;46020;-57
2021/10/20 07:44:03;;;;;;;27.17;19.77;;;;;;;;;;143726;569;46020;-57
2021/10/20 07:46:30;;;;;;;31.15;19.85;;;;;;;;;;143728;605;46021;-56
2021/10/20 07:48:57;;;;;;;24.30;17.90;;;;;;;;;;143723;580;47020;-57
2021/10/20 07:51:24;;;;;;;23.38;18.02;;;;;;;;;;143724;570;46020;-58
2021/10/20 07:53:51;;;;;;;24.08;17.42;;;;;;;;;;143724;626;46021;-57
2021/10/20 07:56:18;;;;;;;21.85;17.45;;;;;;;;;;143729;591;46020;-58
2021/10/20 07:58:45;;;;;;;17.48;14.93;;;;;;;;;;143724;629;47022;-58
2021/10/20 08:01:12;;;;;;;19.12;14.15;;;;;;;;;;143723;636;46915;-58
2021/10/20 08:03:39;;;;;;;20.80;15.82;;;;;;;;;;143724;569;46908;-59
2021/10/20 08:06:06;;;;;;;23.20;14.52;;;;;;;;;;143728;580;46020;-60
2021/10/20 08:08:33;;;;;;;24.27;16.45;;;;;;;;;;143727;586;46022;-59
2021/10/20 08:11:00;;;;;;;22.27;16.10;;;;;;;;;;143721;585;46915;-59
2021/10/20 08:13:27;;;;;;;19.55;14.40;;;;;;;;;;143725;577;46020;-58
2021/10/20 08:15:54;;;;;;;25.00;18.02;;;;;;;;;;143728;659;46020;-58
2021/10/20 08:18:21;;;;;;;25.15;18.98;;;;;;;;;;143726;572;46023;-58
2021/10/20 08:20:48;;;;;;;23.15;16.17;;;;;;;;;;143721;564;46020;-58
2021/10/20 08:23:15;;;;;;;22.83;13.13;;;;;;;;;;143724;572;46020;-59
2021/10/20 08:25:42;;;;;;;26.12;20.12;;;;;;;;;;143729;670;46020;-58
2021/10/20 08:28:09;;;;;;;30.58;18.45;;;;;;;;;;143726;593;47020;-58
2021/10/20 08:30:36;;;;;;;20.80;14.75;;;;;;;;;;143724;592;46021;-59
2021/10/20 08:33:03;;;;;;;23.35;14.85;;;;;;;;;;143724;666;46021;-58
2021/10/20 08:35:30;;;;;;;20.37;15.82;;;;;;;;;;143728;670;46020;-59
2021/10/20 08:38:03;;;;;;;24.75;18.35;;;;;;;;;;143726;587;47021;-58
2021/10/20 08:40:34;;;;;;;21.70;15.30;;;;;;;;;;143727;578;46020;-58
2021/10/20 08:43:02;;;;;;;23.35;18.80;;;;;;;;;;143724;682;46020;-59
2021/10/20 08:45:30;;;;;;;24.45;15.55;;;;;;;;;;143728;571;46020;-59
2021/10/20 08:47:58;;;;;;;22.37;15.35;;;;;;;;;;143720;604;48020;-58
2021/10/20 08:50:31;;;;;;;23.70;17.05;;;;;;;;;;143724;628;46020;-58
2021/10/20 08:52:58;;;;;;;21.37;15.73;;;;;;;;;;143725;564;46020;-59
2021/10/20 08:55:26;;;;;;;22.25;17.08;;;;;;;;;;143728;570;46021;-58
2021/10/20 08:57:55;;;;;;;22.30;15.60;;;;;;;;;;143727;667;46022;-58
2021/10/20 09:00:23;;;;;;;27.65;15.38;;;;;;;;;;143725;576;46021;-58
2021/10/20 09:02:50;;;;;;;21.62;15.57;;;;;;;;;;143725;618;46021;-59
2021/10/20 09:05:26;;;;;;;25.70;17.20;;;;;;;;;;143728;592;46020;-59
2021/10/20 09:07:55;;;;;;;22.25;16.70;;;;;;;;;;143727;730;46022;-59
2021/10/20 09:10:23;;;;;;;29.85;23.80;;;;;;;;;;143726;726;46020;-59
2021/10/20 09:12:50;;;;;;;35.95;21.17;;;;;;;;;;143727;626;46020;-59
2021/10/20 09:15:22;;;;;;;25.12;19.83;;;;;;;;;;143730;595;46020;-60
2021/10/20 09:17:58;;;;;;;29.87;22.17;;;;;;;;;;143725;589;47036;-59
2021/10/20 09:20:31;;;;;;;21.62;15.93;;;;;;;;;;143724;625;46020;-60
2021/10/20 09:23:09;;;;;;;32.25;24.02;;;;;;;;;;143727;570;46020;-61
2021/10/20 09:25:52;;;;;;;24.40;17.87;;;;;;;;;;143728;592;46020;-60
2021/10/20 09:28:33;;;;;;;20.37;14.63;;;;;;;;;;143725;572;48020;-60
2021/10/20 09:31:07;;;;;;;21.92;18.67;;;;;;;;;;143726;584;47021;-59
2021/10/20 09:33:36;;;;;;;22.73;14.20;;;;;;;;;;143724;608;47020;-59
2021/10/20 09:36:14;;;;;;;23.60;16.45;;;;;;;;;;143726;638;48020;-60
2021/10/20 09:38:52;;;;;;;18.95;15.00;;;;;;;;;;143727;601;46023;-59
2021/10/20 09:41:19;;;;;;;22.25;16.37;;;;;;;;;;143725;617;46020;-60
2021/10/20 09:43:55;;;;;;;23.58;16.77;;;;;;;;;;143723;569;46020;-58
2021/10/20 09:46:36;;;;;;;24.20;16.12;;;;;;;;;;143727;632;46021;-59
2021/10/20 09:49:33;;;;;;;20.42;15.93;;;;;;;;;;143727;587;46022;-59
2021/10/20 09:52:00;;;;;;;17.12;14.10;;;;;;;;;;143724;601;46020;-58
2021/10/20 09:54:29;;;;;;;15.35;12.60;;;;;;;;;;143726;582;46021;-58
2021/10/20 09:56:58;;;;;;;13.80;11.73;;;;;;;;;;143728;591;46020;-58
2021/10/20 09:59:26;;;;;;;13.60;11.10;;;;;;;;;;143724;594;47022;-59
2021/10/20 10:01:53;;;;;;;14.18;11.43;;;;;;;;;;143725;580;46021;-59
2021/10/20 10:04:21;;;;;;;18.33;11.90;;;;;;;;;;143726;607;46020;-58
2021/10/20 10:06:50;;;;;;;16.40;13.73;;;;;;;;;;143729;584;46020;-59
2021/10/20 10:09:18;;;;;;;15.80;12.00;;;;;;;;;;143724;631;47020;-58
2021/10/20 10:11:52;;;;;;;17.42;10.88;;;;;;;;;;143725;636;46020;-58
2021/10/20 10:14:24;;;;;;;14.05;11.07;;;;;;;;;;143723;626;46020;-58
2021/10/20 10:16:58;;;;;;;33.10;25.92;;;;;;;;;;143732;641;46021;-58
2021/10/20 10:19:29;;;;;;;14.43;10.85;;;;;;;;;;143726;654;47020;-59
2021/10/20 10:21:57;;;;;;;19.17;11.05;;;;;;;;;;143722;565;47010;-59
2021/10/20 10:24:34;;;;;;;17.60;13.57;;;;;;;;;;143725;571;46021;-59
2021/10/20 10:27:09;;;;;;;16.10;10.88;;;;;;;;;;143730;612;46020;-58
2021/10/20 10:30:16;;;;;;;17.17;13.73;;;;;;;;;;143728;576;46040;-58
2021/10/20 10:32:45;;;;;;;20.12;15.48;;;;;;;;;;143726;574;46020;-59
2021/10/20 10:35:13;;;;;;;20.92;12.45;;;;;;;;;;143727;570;46020;-59
2021/10/20 10:37:39;;;;;;;21.50;17.40;;;;;;;;;;143730;606;46020;-59
2021/10/20 10:40:23;;;;;;;19.73;11.65;;;;;;;;;;143727;573;46022;-59
2021/10/20 10:42:51;;;;;;;20.73;16.50;;;;;;;;;;143725;627;46020;-58
2021/10/20 10:45:23;;;;;;;16.90;13.15;;;;;;;;;;143723;583;46020;-58
2021/10/20 10:48:09;;;;;;;25.27;20.15;;;;;;;;;;143728;660;46020;-59
2021/10/20 10:50:53;;;;;;;17.15;13.00;;;;;;;;;;143729;575;46022;-59
2021/10/20 10:53:27;;;;;;;;;;;;;;;;;;143732;974;46021;-57
2021/10/20 10:56:11;;;;;;;16.65;13.62;;;;;;;;;;143731;653;46020;-58
2021/10/20 10:59:15;;;;;;;29.63;23.17;;;;;;;;;;143729;571;46020;-59
2021/10/20 11:01:50;;;;;;;24.45;20.92;;;;;;;;;;143728;587;46023;-59
2021/10/20 11:04:25;;;;;;;24.65;18.92;;;;;;;;;;143726;602;46020;-58
2021/10/20 11:06:54;;;;;;;21.48;17.23;;;;;;;;;;143724;693;46910;-59
2021/10/20 11:09:32;;;;;;;24.55;18.33;;;;;;;;;;143729;571;46021;-59
2021/10/20 11:12:02;;;;;;;25.05;19.98;;;;;;;;;;143727;572;46022;-60
2021/10/20 11:14:31;;;;;;;16.73;14.13;;;;;;;;;;143725;566;46021;-60
2021/10/20 11:17:11;;;;;;;22.08;17.85;;;;;;;;;;143726;723;46021;-59
2021/10/20 11:19:40;;;;;;;16.55;14.80;;;;;;;;;;143730;720;46020;-59
2021/10/20 11:22:06;;;;;;;21.87;17.12;;;;;;;;;;143728;570;46022;-59
2021/10/20 11:24:34;;;;;;;18.37;14.05;;;;;;;;;;143725;569;46020;-58
2021/10/20 11:27:02;;;;;;;18.33;15.60;;;;;;;;;;143726;643;46020;-59
2021/10/20 11:29:29;;;;;;;21.92;16.77;;;;;;;;;;143728;564;46020;-59
2021/10/20 11:31:57;;;;;;;24.87;15.57;;;;;;;;;;143728;613;46023;-60
2021/10/20 11:34:27;;;;;;;47.85;33.53;;;;;;;;;;143728;685;46020;-59
2021/10/20 11:37:00;;;;;;;74.05;55.17;;;;;;;;;;143728;570;46020;-59
2021/10/20 11:39:29;;;;;;;61.85;46.78;;;;;;;;;;143730;569;46020;-59
2021/10/20 11:42:02;;;;;;;41.60;33.05;;;;;;;;;;143729;587;46022;-59
2021/10/20 11:44:31;;;;;;;36.75;25.20;;;;;;;;;;143726;582;46021;-60
2021/10/20 11:47:01;;;;;;;18.90;15.98;;;;;;;;;;143727;701;46020;-59
2021/10/20 11:49:28;;;;;;;30.10;23.05;;;;;;;;;;143731;601;46020;-60
2021/10/20 11:51:56;;;;;;;16.77;13.82;;;;;;;;;;143728;579;47021;-60
2021/10/20 11:54:25;;;;;;;18.35;13.75;;;;;;;;;;143726;589;46020;-60
2021/10/20 11:56:54;;;;;;;18.95;14.93;;;;;;;;;;143727;632;46020;-60
2021/10/20 11:59:28;;;;;;;17.42;13.95;;;;;;;;;;143730;589;46020;-59
2021/10/20 12:01:56;;;;;;;14.87;13.32;;;;;;;;;;143728;575;47020;-60
2021/10/20 12:04:24;;;;;;;18.30;13.30;;;;;;;;;;143726;587;46020;-59
2021/10/20 12:07:03;;;;;;;20.27;15.77;;;;;;;;;;143727;638;46020;-59
2021/10/20 12:09:32;;;;;;;16.83;13.73;;;;;;;;;;143731;630;46020;-60
2021/10/20 12:12:00;;;;;;;16.90;13.80;;;;;;;;;;143729;587;46022;-60
2021/10/20 12:14:41;;;;;;;16.55;13.85;;;;;;;;;;143727;624;46021;-61
2021/10/20 12:17:09;;;;;;;18.77;13.85;;;;;;;;;;143729;582;46020;-60
2021/10/20 12:19:38;;;;;;;19.60;14.25;;;;;;;;;;143731;608;46020;-60
2021/10/20 12:22:14;;;;;;;16.98;13.40;;;;;;;;;;143727;570;47022;-60
2021/10/20 12:24:45;;;;;;;14.80;12.65;;;;;;;;;;143729;603;46020;-60
2021/10/20 12:27:12;;;;;;;15.90;11.90;;;;;;;;;;143727;619;46020;-60
2021/10/20 12:29:48;;;;;;;14.55;12.63;;;;;;;;;;143729;633;46020;-60
2021/10/20 12:32:27;;;;;;;14.32;11.88;;;;;;;;;;143729;639;46051;-61
2021/10/20 12:35:15;;;;;;;14.20;12.65;;;;;;;;;;143727;566;46020;-60
2021/10/20 12:37:51;;;;;;;13.20;11.75;;;;;;;;;;143727;594;46023;-60
2021/10/20 12:40:23;;;;;;;14.27;12.37;;;;;;;;;;143730;574;46020;-60
2021/10/20 12:42:57;;;;;;;14.13;12.65;;;;;;;;;;143729;589;46022;-60
2021/10/20 12:45:25;;;;;;;22.30;14.18;;;;;;;;;;143727;581;46021;-60
2021/10/20 12:47:55;;;;;;;14.25;12.60;;;;;;;;;;143728;592;46020;-60
2021/10/20 12:50:26;;;;;;;13.23;11.73;;;;;;;;;;143731;591;46020;-62
2021/10/20 12:52:54;;;;;;;17.95;13.20;;;;;;;;;;143730;622;46023;-60
2021/10/20 12:55:27;;;;;;;14.82;11.75;;;;;;;;;;143725;572;46020;-60
2021/10/20 12:57:59;;;;;;;17.65;12.55;;;;;;;;;;143728;584;46020;-60
2021/10/20 13:00:30;;;;;;;14.70;11.85;;;;;;;;;;143730;564;46021;-60
2021/10/20 13:02:59;;;;;;;13.18;11.57;;;;;;;;;;143729;566;46022;-59
2021/10/20 13:05:26;;;;;;;18.52;12.73;;;;;;;;;;143726;594;46021;-60
2021/10/20 13:07:55;;;;;;;18.42;11.80;;;;;;;;;;143727;577;46021;-60
2021/10/20 13:10:23;;;;;;;16.90;11.73;;;;;;;;;;143731;613;46020;-60
2021/10/20 13:12:56;;;;;;;14.45;11.63;;;;;;;;;;143729;594;46022;-59
2021/10/20 13:15:31;;;;;;;13.23;11.07;;;;;;;;;;143726;604;46020;-60
2021/10/20 13:17:59;;;;;;;13.82;11.82;;;;;;;;;;143726;604;46020;-59
2021/10/20 13:20:27;;;;;;;13.73;12.20;;;;;;;;;;143731;594;46020;-60
2021/10/20 13:22:56;;;;;;;13.85;12.10;;;;;;;;;;143730;579;46023;-60
2021/10/20 13:25:23;;;;;;;12.43;10.90;;;;;;;;;;143727;589;46020;-59
2021/10/20 13:27:50;;;;;;;12.88;11.48;;;;;;;;;;143727;587;46020;-60
2021/10/20 13:30:18;;;;;;;11.88;10.32;;;;;;;;;;143731;616;46021;-59
2021/10/20 13:32:45;;;;;;;14.07;11.93;;;;;;;;;;143729;571;46022;-60
2021/10/20 13:35:12;;;;;;;13.20;11.00;;;;;;;;;;143727;578;47010;-60
2021/10/20 13:37:39;;;;;;;15.13;11.45;;;;;;;;;;143728;573;46021;-60
2021/10/20 13:40:07;;;;;;;16.25;11.93;;;;;;;;;;143730;621;46020;-60
2021/10/20 13:42:34;;;;;;;14.13;11.50;;;;;;;;;;143729;594;46022;-59
2021/10/20 13:45:02;;;;;;;13.23;11.43;;;;;;;;;;143726;632;46020;-60
2021/10/20 13:47:30;;;;;;;12.48;10.98;;;;;;;;;;143727;591;46020;-61
2021/10/20 13:49:57;;;;;;;13.90;11.38;;;;;;;;;;143731;699;46020;-60
2021/10/20 13:52:25;;;;;;;15.65;11.70;;;;;;;;;;143729;570;46023;-60
2021/10/20 13:54:52;;;;;;;16.83;12.23;;;;;;;;;;143726;622;46916;-61
2021/10/20 13:57:20;;;;;;;13.27;11.52;;;;;;;;;;143726;614;46020;-60
2021/10/20 13:59:48;;;;;;;13.07;11.40;;;;;;;;;;143731;588;46021;-61
2021/10/20 14:02:14;;;;;;;13.80;11.38;;;;;;;;;;143729;585;46022;-61
2021/10/20 14:04:42;;;;;;;15.05;11.05;;;;;;;;;;143725;578;46021;-60
2021/10/20 14:07:10;;;;;;;12.75;11.32;;;;;;;;;;143729;631;46021;-60
2021/10/20 14:09:37;;;;;;;12.75;10.80;;;;;;;;;;143730;569;46020;-60
2021/10/20 14:12:06;;;;;;;14.00;11.38;;;;;;;;;;143729;624;46022;-59
2021/10/20 14:14:33;;;;;;;12.95;11.07;;;;;;;;;;143726;570;46916;-60
2021/10/20 14:17:01;;;;;;;15.00;11.93;;;;;;;;;;143727;597;46020;-61
2021/10/20 14:19:28;;;;;;;13.73;11.95;;;;;;;;;;143731;697;46020;-60
2021/10/20 14:21:55;;;;;;;16.52;12.95;;;;;;;;;;143729;615;46023;-59
2021/10/20 14:24:22;;;;;;;13.35;11.88;;;;;;;;;;143726;569;46020;-61
2021/10/20 14:26:50;;;;;;;13.50;11.00;;;;;;;;;;143727;608;46020;-60
2021/10/20 14:29:17;;;;;;;15.13;12.88;;;;;;;;;;143727;565;47012;-60